sensor_id;sensor_type;location;lat;lon;timestamp;pressure;altitude;pressure_sealevel;temperature;humidity
61205;BME280;47068;55.780;37.520;2023-12-22T00:00:26;97662.72;;;3.31;72.13
61205;BME280;47068;55.780;37.520;2023-12-22T00:02:51;97660.25;;;3.29;72.34
61205;BME280;47068;55.780;37.520;2023-12-22T00:05:17;97658.09;;;3.33;72.27
61205;BME280;47068;55.780;37.520;2023-12-22T00:07:42;97656.47;;;3.24;72.07
61205;BME280;47068;55.780;37.520;2023-12-22T00:10:08;97653.34;;;3.20;72.55
61205;BME280;47068;55.780;37.520;2023-12-22T00:12:34;97655.81;;;3.22;72.18
61205;BME280;47068;55.780;37.520;2023-12-22T00:14:59;97652.72;;;3.18;72.39
61205;BME280;47068;55.780;37.520;2023-12-22T00:17:24;97644.50;;;3.13;72.02
61205;BME280;47068;55.780;37.520;2023-12-22T00:19:50;97654.69;;;3.08;72.61
61205;BME280;47068;55.780;37.520;2023-12-22T00:22:15;97645.81;;;3.09;72.18
61205;BME280;47068;55.780;37.520;2023-12-22T00:24:40;97645.31;;;3.05;71.82
61205;BME280;47068;55.780;37.520;2023-12-22T00:27:06;97640.75;;;2.99;71.82
61205;BME280;47068;55.780;37.520;2023-12-22T00:29:31;97648.63;;;2.91;71.02
61205;BME280;47068;55.780;37.520;2023-12-22T00:32:00;97641.41;;;2.93;71.31
61205;BME280;47068;55.780;37.520;2023-12-22T00:34:26;97638.28;;;2.98;71.06
61205;BME280;47068;55.780;37.520;2023-12-22T00:36:51;97633.00;;;3.06;71.28
61205;BME280;47068;55.780;37.520;2023-12-22T00:39:16;97639.91;;;2.99;69.00
61205;BME280;47068;55.780;37.520;2023-12-22T00:41:42;97634.66;;;2.91;69.41
61205;BME280;47068;55.780;37.520;2023-12-22T00:44:07;97637.97;;;2.93;69.80
61205;BME280;47068;55.780;37.520;2023-12-22T00:46:33;97636.31;;;2.92;69.78
61205;BME280;47068;55.780;37.520;2023-12-22T00:48:59;97625.00;;;2.91;69.81
61205;BME280;47068;55.780;37.520;2023-12-22T00:51:24;97634.50;;;2.92;69.56
61205;BME280;47068;55.780;37.520;2023-12-22T00:53:49;97630.75;;;2.87;69.08
61205;BME280;47068;55.780;37.520;2023-12-22T00:56:15;97625.19;;;2.82;69.51
61205;BME280;47068;55.780;37.520;2023-12-22T00:58:40;97623.19;;;2.84;69.96
61205;BME280;47068;55.780;37.520;2023-12-22T01:01:05;97628.44;;;2.84;69.93
61205;BME280;47068;55.780;37.520;2023-12-22T01:03:31;97618.94;;;2.83;70.04
61205;BME280;47068;55.780;37.520;2023-12-22T01:05:56;97627.31;;;2.78;68.64
61205;BME280;47068;55.780;37.520;2023-12-22T01:08:21;97627.81;;;2.73;68.96
61205;BME280;47068;55.780;37.520;2023-12-22T01:10:47;97628.63;;;2.74;69.04
61205;BME280;47068;55.780;37.520;2023-12-22T01:13:12;97622.91;;;2.62;69.32
61205;BME280;47068;55.780;37.520;2023-12-22T01:15:38;97627.16;;;2.55;69.13
61205;BME280;47068;55.780;37.520;2023-12-22T01:18:03;97630.59;;;2.56;69.46
61205;BME280;47068;55.780;37.520;2023-12-22T01:20:29;97625.53;;;2.54;69.82
61205;BME280;47068;55.780;37.520;2023-12-22T01:22:54;97628.63;;;2.58;69.57
61205;BME280;47068;55.780;37.520;2023-12-22T01:25:19;97629.75;;;2.63;69.63
61205;BME280;47068;55.780;37.520;2023-12-22T01:27:45;97619.25;;;2.71;69.16
61205;BME280;47068;55.780;37.520;2023-12-22T01:30:12;97621.22;;;2.77;69.61
61205;BME280;47068;55.780;37.520;2023-12-22T01:32:38;97623.69;;;2.71;68.89
61205;BME280;47068;55.780;37.520;2023-12-22T01:35:03;97618.94;;;2.74;69.03
61205;BME280;47068;55.780;37.520;2023-12-22T01:37:34;97614.31;;;2.93;69.54
61205;BME280;47068;55.780;37.520;2023-12-22T01:39:59;97616.94;;;2.93;68.23
61205;BME280;47068;55.780;37.520;2023-12-22T01:42:25;97606.75;;;2.98;68.57
61205;BME280;47068;55.780;37.520;2023-12-22T01:44:50;97609.91;;;2.93;68.56
61205;BME280;47068;55.780;37.520;2023-12-22T01:47:16;97616.78;;;2.94;68.59
61205;BME280;47068;55.780;37.520;2023-12-22T01:49:41;97610.72;;;3.02;68.77
61205;BME280;47068;55.780;37.520;2023-12-22T01:52:06;97601.34;;;2.99;68.42
61205;BME280;47068;55.780;37.520;2023-12-22T01:54:32;97604.13;;;2.98;68.80
61205;BME280;47068;55.780;37.520;2023-12-22T01:56:58;97600.56;;;2.83;68.96
61205;BME280;47068;55.780;37.520;2023-12-22T01:59:23;97591.50;;;2.85;69.47
61205;BME280;47068;55.780;37.520;2023-12-22T02:01:48;97605.31;;;2.79;69.81
61205;BME280;47068;55.780;37.520;2023-12-22T02:04:14;97609.44;;;2.82;69.84
61205;BME280;47068;55.780;37.520;2023-12-22T02:06:40;97611.22;;;2.81;69.40
61205;BME280;47068;55.780;37.520;2023-12-22T02:09:05;97598.25;;;2.80;70.03
61205;BME280;47068;55.780;37.520;2023-12-22T02:11:31;97593.31;;;2.85;70.22
61205;BME280;47068;55.780;37.520;2023-12-22T02:13:56;97594.34;;;2.67;69.65
61205;BME280;47068;55.780;37.520;2023-12-22T02:16:42;97590.38;;;2.71;70.14
61205;BME280;47068;55.780;37.520;2023-12-22T02:22:03;97590.06;;;2.74;70.55
61205;BME280;47068;55.780;37.520;2023-12-22T02:24:29;97587.59;;;2.81;69.79
61205;BME280;47068;55.780;37.520;2023-12-22T02:26:56;97584.44;;;2.94;69.98
61205;BME280;47068;55.780;37.520;2023-12-22T02:29:25;97582.44;;;3.12;68.99
61205;BME280;47068;55.780;37.520;2023-12-22T02:31:50;97578.34;;;3.17;68.35
61205;BME280;47068;55.780;37.520;2023-12-22T02:34:19;97584.19;;;3.28;68.59
61205;BME280;47068;55.780;37.520;2023-12-22T02:36:45;97582.19;;;3.38;68.21
61205;BME280;47068;55.780;37.520;2023-12-22T02:39:10;97577.78;;;3.38;68.09
61205;BME280;47068;55.780;37.520;2023-12-22T02:41:36;97578.41;;;3.40;68.06
61205;BME280;47068;55.780;37.520;2023-12-22T02:44:01;97570.50;;;3.40;67.36
61205;BME280;47068;55.780;37.520;2023-12-22T02:46:27;97582.00;;;3.39;68.03
61205;BME280;47068;55.780;37.520;2023-12-22T02:48:52;97575.91;;;3.47;68.08
61205;BME280;47068;55.780;37.520;2023-12-22T02:51:17;97573.63;;;3.44;65.99
61205;BME280;47068;55.780;37.520;2023-12-22T02:53:43;97568.66;;;3.18;67.13
61205;BME280;47068;55.780;37.520;2023-12-22T02:56:08;97563.75;;;2.91;68.19
61205;BME280;47068;55.780;37.520;2023-12-22T02:58:33;97555.28;;;2.81;68.98
61205;BME280;47068;55.780;37.520;2023-12-22T03:00:59;97560.81;;;2.94;69.37
61205;BME280;47068;55.780;37.520;2023-12-22T03:03:24;97561.63;;;3.02;69.10
61205;BME280;47068;55.780;37.520;2023-12-22T03:05:49;97553.09;;;3.00;68.96
61205;BME280;47068;55.780;37.520;2023-12-22T03:08:15;97560.00;;;2.85;69.31
61205;BME280;47068;55.780;37.520;2023-12-22T03:10:40;97550.34;;;2.77;69.32
61205;BME280;47068;55.780;37.520;2023-12-22T03:13:05;97549.50;;;2.77;69.54
61205;BME280;47068;55.780;37.520;2023-12-22T03:15:31;97545.75;;;2.80;69.26
61205;BME280;47068;55.780;37.520;2023-12-22T03:17:56;97544.63;;;2.74;69.71
61205;BME280;47068;55.780;37.520;2023-12-22T03:20:21;97548.06;;;2.74;69.49
61205;BME280;47068;55.780;37.520;2023-12-22T03:22:47;97556.59;;;2.76;70.40
61205;BME280;47068;55.780;37.520;2023-12-22T03:25:12;97558.88;;;2.80;70.30
61205;BME280;47068;55.780;37.520;2023-12-22T03:27:37;97560.53;;;2.72;70.40
61205;BME280;47068;55.780;37.520;2023-12-22T03:30:03;97550.69;;;2.66;70.46
61205;BME280;47068;55.780;37.520;2023-12-22T03:32:28;97562.19;;;2.57;70.65
61205;BME280;47068;55.780;37.520;2023-12-22T03:34:54;97563.50;;;2.61;70.59
61205;BME280;47068;55.780;37.520;2023-12-22T03:37:19;97560.88;;;2.61;71.04
61205;BME280;47068;55.780;37.520;2023-12-22T03:39:44;97552.34;;;2.67;70.75
61205;BME280;47068;55.780;37.520;2023-12-22T03:42:10;97562.31;;;2.80;71.20
61205;BME280;47068;55.780;37.520;2023-12-22T03:44:35;97555.88;;;2.91;70.47
61205;BME280;47068;55.780;37.520;2023-12-22T03:47:00;97556.22;;;2.96;70.04
61205;BME280;47068;55.780;37.520;2023-12-22T03:49:26;97560.44;;;3.05;69.96
61205;BME280;47068;55.780;37.520;2023-12-22T03:51:51;97549.47;;;3.01;69.23
61205;BME280;47068;55.780;37.520;2023-12-22T03:54:16;97556.41;;;2.86;69.45
61205;BME280;47068;55.780;37.520;2023-12-22T03:56:42;97553.00;;;2.61;69.73
61205;BME280;47068;55.780;37.520;2023-12-22T03:59:08;97546.13;;;2.52;70.64
61205;BME280;47068;55.780;37.520;2023-12-22T04:01:33;97532.34;;;2.42;70.99
61205;BME280;47068;55.780;37.520;2023-12-22T04:03:59;97525.47;;;2.41;71.31
61205;BME280;47068;55.780;37.520;2023-12-22T04:06:24;97537.78;;;2.49;71.81
61205;BME280;47068;55.780;37.520;2023-12-22T04:08:50;97532.53;;;2.49;71.18
61205;BME280;47068;55.780;37.520;2023-12-22T04:11:15;97530.06;;;2.31;71.09
61205;BME280;47068;55.780;37.520;2023-12-22T04:13:40;97524.50;;;2.34;71.41
61205;BME280;47068;55.780;37.520;2023-12-22T04:16:06;97512.84;;;2.28;72.50
61205;BME280;47068;55.780;37.520;2023-12-22T04:18:31;97519.56;;;2.31;72.43
61205;BME280;47068;55.780;37.520;2023-12-22T04:20:57;97512.34;;;2.33;72.66
61205;BME280;47068;55.780;37.520;2023-12-22T04:23:22;97518.44;;;2.33;72.39
61205;BME280;47068;55.780;37.520;2023-12-22T04:25:48;97517.25;;;2.44;72.90
61205;BME280;47068;55.780;37.520;2023-12-22T04:28:13;97519.56;;;2.47;71.29
61205;BME280;47068;55.780;37.520;2023-12-22T04:30:38;97508.09;;;2.32;71.99
61205;BME280;47068;55.780;37.520;2023-12-22T04:33:04;97516.63;;;2.26;72.14
61205;BME280;47068;55.780;37.520;2023-12-22T04:35:29;97512.03;;;2.20;72.92
61205;BME280;47068;55.780;37.520;2023-12-22T04:37:54;97508.91;;;2.16;72.51
61205;BME280;47068;55.780;37.520;2023-12-22T04:40:20;97508.75;;;2.18;72.42
61205;BME280;47068;55.780;37.520;2023-12-22T04:42:45;97501.88;;;2.17;72.86
61205;BME280;47068;55.780;37.520;2023-12-22T04:45:10;97495.28;;;2.29;73.13
61205;BME280;47068;55.780;37.520;2023-12-22T04:47:36;97485.47;;;2.31;72.75
61205;BME280;47068;55.780;37.520;2023-12-22T04:50:01;97477.59;;;2.23;72.45
61205;BME280;47068;55.780;37.520;2023-12-22T04:52:26;97487.44;;;2.05;72.45
61205;BME280;47068;55.780;37.520;2023-12-22T04:54:52;97490.38;;;2.10;72.70
61205;BME280;47068;55.780;37.520;2023-12-22T04:57:17;97472.03;;;2.18;73.07
61205;BME280;47068;55.780;37.520;2023-12-22T04:59:43;97486.13;;;2.25;72.64
61205;BME280;47068;55.780;37.520;2023-12-22T05:02:08;97478.41;;;2.31;72.45
61205;BME280;47068;55.780;37.520;2023-12-22T05:04:34;97488.06;;;2.39;72.40
61205;BME280;47068;55.780;37.520;2023-12-22T05:06:59;97475.94;;;2.30;71.62
61205;BME280;47068;55.780;37.520;2023-12-22T05:09:25;97412.72;;;1.84;71.64
61205;BME280;47068;55.780;37.520;2023-12-22T05:11:52;97483.19;;;2.20;72.51
61205;BME280;47068;55.780;37.520;2023-12-22T05:14:17;97474.34;;;2.21;72.39
61205;BME280;47068;55.780;37.520;2023-12-22T05:16:42;97473.00;;;2.33;72.37
61205;BME280;47068;55.780;37.520;2023-12-22T05:19:08;97482.16;;;2.37;71.71
61205;BME280;47068;55.780;37.520;2023-12-22T05:21:34;97483.19;;;2.20;71.73
61205;BME280;47068;55.780;37.520;2023-12-22T05:23:59;97481.53;;;2.11;72.76
61205;BME280;47068;55.780;37.520;2023-12-22T05:26:24;97488.59;;;2.02;72.51
61205;BME280;47068;55.780;37.520;2023-12-22T05:28:50;97484.31;;;2.01;72.89
61205;BME280;47068;55.780;37.520;2023-12-22T05:31:16;97490.72;;;2.07;72.91
61205;BME280;47068;55.780;37.520;2023-12-22T05:33:41;97495.47;;;2.03;73.09
61205;BME280;47068;55.780;37.520;2023-12-22T05:36:06;97481.53;;;2.03;72.91
61205;BME280;47068;55.780;37.520;2023-12-22T05:38:32;97486.78;;;2.03;72.93
61205;BME280;47068;55.780;37.520;2023-12-22T05:40:57;97475.47;;;2.10;73.42
61205;BME280;47068;55.780;37.520;2023-12-22T05:43:22;97481.53;;;2.19;72.35
61205;BME280;47068;55.780;37.520;2023-12-22T05:45:48;97474.66;;;2.18;72.52
61205;BME280;47068;55.780;37.520;2023-12-22T05:48:13;97480.56;;;2.20;73.13
61205;BME280;47068;55.780;37.520;2023-12-22T05:50:38;97481.84;;;2.24;72.65
61205;BME280;47068;55.780;37.520;2023-12-22T05:53:04;97490.03;;;2.29;73.27
61205;BME280;47068;55.780;37.520;2023-12-22T05:55:29;97486.13;;;2.25;72.98
61205;BME280;47068;55.780;37.520;2023-12-22T05:57:55;97493.00;;;2.26;72.92
61205;BME280;47068;55.780;37.520;2023-12-22T06:00:20;97481.19;;;2.38;72.70
61205;BME280;47068;55.780;37.520;2023-12-22T06:02:46;97489.06;;;2.38;72.81
61205;BME280;47068;55.780;37.520;2023-12-22T06:05:11;97485.97;;;2.34;72.79
61205;BME280;47068;55.780;37.520;2023-12-22T06:07:36;97484.00;;;2.12;73.33
61205;BME280;47068;55.780;37.520;2023-12-22T06:10:02;97483.19;;;2.12;73.49
61205;BME280;47068;55.780;37.520;2023-12-22T06:12:27;97484.16;;;2.19;73.34
61205;BME280;47068;55.780;37.520;2023-12-22T06:14:53;97489.41;;;2.19;73.22
61205;BME280;47068;55.780;37.520;2023-12-22T06:17:18;97501.34;;;2.21;73.37
61205;BME280;47068;55.780;37.520;2023-12-22T06:19:43;97504.34;;;2.18;73.40
61205;BME280;47068;55.780;37.520;2023-12-22T06:22:09;97497.13;;;2.20;73.91
61205;BME280;47068;55.780;37.520;2023-12-22T06:24:34;97501.03;;;2.32;74.20
61205;BME280;47068;55.780;37.520;2023-12-22T06:27:00;97486.94;;;2.17;73.23
61205;BME280;47068;55.780;37.520;2023-12-22T06:29:25;97498.59;;;1.98;74.52
61205;BME280;47068;55.780;37.520;2023-12-22T06:31:51;97505.13;;;2.03;74.09
61205;BME280;47068;55.780;37.520;2023-12-22T06:34:16;97501.84;;;2.01;74.34
61205;BME280;47068;55.780;37.520;2023-12-22T06:36:42;97502.84;;;2.08;74.33
61205;BME280;47068;55.780;37.520;2023-12-22T06:39:08;97509.72;;;2.09;74.07
61205;BME280;47068;55.780;37.520;2023-12-22T06:41:33;97501.84;;;2.01;74.01
61205;BME280;47068;55.780;37.520;2023-12-22T06:43:58;97506.78;;;2.04;74.34
61205;BME280;47068;55.780;37.520;2023-12-22T06:46:27;97518.41;;;2.09;74.35
61205;BME280;47068;55.780;37.520;2023-12-22T06:48:56;97516.31;;;2.13;73.49
61205;BME280;47068;55.780;37.520;2023-12-22T06:51:22;97500.72;;;2.19;73.68
61205;BME280;47068;55.780;37.520;2023-12-22T06:53:48;97505.16;;;2.35;73.60
61205;BME280;47068;55.780;37.520;2023-12-22T06:56:17;97513.19;;;2.33;72.52
61205;BME280;47068;55.780;37.520;2023-12-22T06:58:43;97514.47;;;2.37;72.96
61205;BME280;47068;55.780;37.520;2023-12-22T07:01:08;97515.28;;;2.30;72.23
61205;BME280;47068;55.780;37.520;2023-12-22T07:03:33;97508.56;;;2.35;72.82
61205;BME280;47068;55.780;37.520;2023-12-22T07:05:59;97506.44;;;2.31;71.60
61205;BME280;47068;55.780;37.520;2023-12-22T07:08:24;97505.31;;;2.42;71.70
61205;BME280;47068;55.780;37.520;2023-12-22T07:10:50;97499.41;;;2.40;71.63
61205;BME280;47068;55.780;37.520;2023-12-22T07:13:15;97504.16;;;2.28;71.41
61205;BME280;47068;55.780;37.520;2023-12-22T07:15:40;97514.97;;;2.09;72.31
61205;BME280;47068;55.780;37.520;2023-12-22T07:18:06;97515.31;;;2.06;72.43
61205;BME280;47068;55.780;37.520;2023-12-22T07:20:31;97504.81;;;1.97;72.54
61205;BME280;47068;55.780;37.520;2023-12-22T07:22:56;97510.06;;;2.06;73.24
61205;BME280;47068;55.780;37.520;2023-12-22T07:25:22;97499.59;;;2.14;72.19
61205;BME280;47068;55.780;37.520;2023-12-22T07:27:47;97516.31;;;2.13;72.43
61205;BME280;47068;55.780;37.520;2023-12-22T07:30:13;97526.44;;;2.16;73.00
61205;BME280;47068;55.780;37.520;2023-12-22T07:32:41;97513.31;;;2.08;72.60
61205;BME280;47068;55.780;37.520;2023-12-22T07:35:07;97514.66;;;1.95;73.22
61205;BME280;47068;55.780;37.520;2023-12-22T07:37:34;97519.56;;;1.90;73.41
61205;BME280;47068;55.780;37.520;2023-12-22T07:40:00;97508.75;;;1.93;73.91
61205;BME280;47068;55.780;37.520;2023-12-22T07:42:25;97496.59;;;2.01;73.36
61205;BME280;47068;55.780;37.520;2023-12-22T07:44:51;97496.94;;;1.97;73.86
61205;BME280;47068;55.780;37.520;2023-12-22T07:47:16;97502.38;;;2.04;74.38
61205;BME280;47068;55.780;37.520;2023-12-22T07:49:41;97488.75;;;2.17;73.48
61205;BME280;47068;55.780;37.520;2023-12-22T07:52:07;97479.25;;;2.16;73.71
61205;BME280;47068;55.780;37.520;2023-12-22T07:54:32;97477.44;;;2.08;73.80
61205;BME280;47068;55.780;37.520;2023-12-22T07:56:58;97478.75;;;2.12;73.40
61205;BME280;47068;55.780;37.520;2023-12-22T07:59:23;97495.00;;;2.00;73.30
61205;BME280;47068;55.780;37.520;2023-12-22T08:01:49;97487.44;;;1.88;73.06
61205;BME280;47068;55.780;37.520;2023-12-22T08:04:15;97490.22;;;1.87;73.74
61205;BME280;47068;55.780;37.520;2023-12-22T08:06:40;97486.44;;;1.81;73.50
61205;BME280;47068;55.780;37.520;2023-12-22T08:09:05;97496.13;;;1.73;73.66
61205;BME280;47068;55.780;37.520;2023-12-22T08:11:31;97470.06;;;1.71;73.30
61205;BME280;47068;55.780;37.520;2023-12-22T08:13:56;97462.84;;;1.57;74.12
61205;BME280;47068;55.780;37.520;2023-12-22T08:16:21;97468.09;;;1.57;74.21
61205;BME280;47068;55.780;37.520;2023-12-22T08:18:47;97460.06;;;1.58;73.71
61205;BME280;47068;55.780;37.520;2023-12-22T08:21:13;97456.63;;;1.74;73.87
61205;BME280;47068;55.780;37.520;2023-12-22T08:23:39;97466.63;;;1.79;73.23
61205;BME280;47068;55.780;37.520;2023-12-22T08:26:04;97455.66;;;1.83;73.20
61205;BME280;47068;55.780;37.520;2023-12-22T08:28:30;97457.63;;;1.89;73.54
61205;BME280;47068;55.780;37.520;2023-12-22T08:30:55;97438.44;;;1.89;72.56
61205;BME280;47068;55.780;37.520;2023-12-22T08:33:20;97442.72;;;2.06;72.99
61205;BME280;47068;55.780;37.520;2023-12-22T08:35:46;97444.00;;;2.10;71.74
61205;BME280;47068;55.780;37.520;2023-12-22T08:38:11;97438.91;;;2.09;71.25
61205;BME280;47068;55.780;37.520;2023-12-22T08:40:57;97442.88;;;1.96;71.56
61205;BME280;47068;55.780;37.520;2023-12-22T08:43:22;97449.41;;;2.09;72.07
61205;BME280;47068;55.780;37.520;2023-12-22T08:45:47;97437.31;;;2.00;71.55
61205;BME280;47068;55.780;37.520;2023-12-22T08:48:13;97447.75;;;2.16;71.72
61205;BME280;47068;55.780;37.520;2023-12-22T08:50:38;97439.91;;;2.08;71.51
61205;BME280;47068;55.780;37.520;2023-12-22T08:53:03;97437.31;;;2.00;70.87
61205;BME280;47068;55.780;37.520;2023-12-22T08:55:29;97439.09;;;1.99;70.74
61205;BME280;47068;55.780;37.520;2023-12-22T08:57:54;97437.13;;;2.01;71.13
61205;BME280;47068;55.780;37.520;2023-12-22T09:00:19;97438.75;;;2.10;71.01
61205;BME280;47068;55.780;37.520;2023-12-22T09:02:45;97435.97;;;2.12;70.67
61205;BME280;47068;55.780;37.520;2023-12-22T09:05:10;97443.22;;;1.93;71.10
61205;BME280;47068;55.780;37.520;2023-12-22T09:07:36;97448.09;;;1.80;71.67
61205;BME280;47068;55.780;37.520;2023-12-22T09:10:02;97451.72;;;1.87;71.17
61205;BME280;47068;55.780;37.520;2023-12-22T09:12:28;97447.13;;;1.89;70.96
61205;BME280;47068;55.780;37.520;2023-12-22T09:14:53;97445.16;;;1.91;70.87
61205;BME280;47068;55.780;37.520;2023-12-22T09:17:19;97448.75;;;1.74;71.08
61205;BME280;47068;55.780;37.520;2023-12-22T09:19:44;97449.75;;;1.73;71.48
61205;BME280;47068;55.780;37.520;2023-12-22T09:22:09;97439.25;;;1.81;70.97
61205;BME280;47068;55.780;37.520;2023-12-22T09:24:35;97437.16;;;1.93;71.35
61205;BME280;47068;55.780;37.520;2023-12-22T09:27:00;97437.94;;;2.02;70.66
61205;BME280;47068;55.780;37.520;2023-12-22T09:29:30;97426.63;;;2.17;70.65
61205;BME280;47068;55.780;37.520;2023-12-22T09:31:58;97426.75;;;2.32;69.42
61205;BME280;47068;55.780;37.520;2023-12-22T09:34:25;97443.94;;;2.43;69.60
61205;BME280;47068;55.780;37.520;2023-12-22T09:36:50;97426.72;;;2.48;69.28
61205;BME280;47068;55.780;37.520;2023-12-22T09:39:16;97420.31;;;2.51;69.21
61205;BME280;47068;55.780;37.520;2023-12-22T09:41:43;97422.31;;;2.49;68.74
61205;BME280;47068;55.780;37.520;2023-12-22T09:44:12;97419.97;;;2.54;67.94
61205;BME280;47068;55.780;37.520;2023-12-22T09:46:38;97411.28;;;2.53;68.80
61205;BME280;47068;55.780;37.520;2023-12-22T09:49:04;97415.31;;;2.72;68.68
61205;BME280;47068;55.780;37.520;2023-12-22T09:51:30;97428.56;;;2.87;67.47
61205;BME280;47068;55.780;37.520;2023-12-22T09:53:56;97422.84;;;2.83;67.31
61205;BME280;47068;55.780;37.520;2023-12-22T09:56:21;97430.84;;;2.90;67.06
61205;BME280;47068;55.780;37.520;2023-12-22T09:58:48;97422.19;;;2.81;67.11
61205;BME280;47068;55.780;37.520;2023-12-22T10:01:15;97415.41;;;2.87;67.36
61205;BME280;47068;55.780;37.520;2023-12-22T10:03:40;97413.19;;;2.75;66.85
61205;BME280;47068;55.780;37.520;2023-12-22T10:06:08;97421.63;;;2.55;67.50
61205;BME280;47068;55.780;37.520;2023-12-22T10:08:33;97405.06;;;2.46;67.82
61205;BME280;47068;55.780;37.520;2023-12-22T10:10:59;97406.44;;;2.34;68.11
61205;BME280;47068;55.780;37.520;2023-12-22T10:13:24;97409.38;;;2.31;68.82
61205;BME280;47068;55.780;37.520;2023-12-22T10:15:53;97396.28;;;2.23;68.37
61205;BME280;47068;55.780;37.520;2023-12-22T10:18:19;97397.47;;;2.04;68.85
61205;BME280;47068;55.780;37.520;2023-12-22T10:20:45;97391.25;;;1.97;68.68
61205;BME280;47068;55.780;37.520;2023-12-22T10:23:10;97396.34;;;1.90;69.38
61205;BME280;47068;55.780;37.520;2023-12-22T10:25:36;97389.28;;;1.91;69.60
61205;BME280;47068;55.780;37.520;2023-12-22T10:28:01;97385.84;;;1.90;68.99
61205;BME280;47068;55.780;37.520;2023-12-22T10:30:27;97392.06;;;1.89;69.02
61205;BME280;47068;55.780;37.520;2023-12-22T10:32:53;97395.81;;;1.95;69.57
61205;BME280;47068;55.780;37.520;2023-12-22T10:35:21;97381.44;;;1.91;69.13
61205;BME280;47068;55.780;37.520;2023-12-22T10:37:47;97385.53;;;1.93;69.70
61205;BME280;47068;55.780;37.520;2023-12-22T10:40:13;97378.94;;;2.06;69.13
61205;BME280;47068;55.780;37.520;2023-12-22T10:42:39;97382.72;;;1.95;69.27
61205;BME280;47068;55.780;37.520;2023-12-22T10:45:05;97368.63;;;1.96;69.25
61205;BME280;47068;55.780;37.520;2023-12-22T10:47:30;97369.13;;;2.00;68.97
61205;BME280;47068;55.780;37.520;2023-12-22T10:49:56;97367.50;;;1.90;69.48
61205;BME280;47068;55.780;37.520;2023-12-22T10:52:21;97362.09;;;2.00;68.94
61205;BME280;47068;55.780;37.520;2023-12-22T10:54:48;97360.44;;;2.07;69.34
61205;BME280;47068;55.780;37.520;2023-12-22T10:57:16;97364.22;;;1.96;69.10
61205;BME280;47068;55.780;37.520;2023-12-22T10:59:45;97357.00;;;1.98;68.65
61205;BME280;47068;55.780;37.520;2023-12-22T11:02:15;97361.25;;;2.00;68.87
61205;BME280;47068;55.780;37.520;2023-12-22T11:04:41;97354.69;;;1.95;69.01
61205;BME280;47068;55.780;37.520;2023-12-22T11:07:11;97359.63;;;1.90;69.49
61205;BME280;47068;55.780;37.520;2023-12-22T11:09:36;97348.81;;;1.93;70.07
61205;BME280;47068;55.780;37.520;2023-12-22T11:12:03;97346.53;;;1.90;69.45
61205;BME280;47068;55.780;37.520;2023-12-22T11:14:30;97353.88;;;1.95;70.45
61205;BME280;47068;55.780;37.520;2023-12-22T11:16:57;97359.91;;;2.20;70.48
61205;BME280;47068;55.780;37.520;2023-12-22T11:19:24;97358.53;;;2.40;70.40
61205;BME280;47068;55.780;37.520;2023-12-22T11:21:52;97356.84;;;2.55;69.63
61205;BME280;47068;55.780;37.520;2023-12-22T11:24:18;97354.34;;;2.62;69.48
61205;BME280;47068;55.780;37.520;2023-12-22T11:26:43;97349.94;;;2.54;69.54
61205;BME280;47068;55.780;37.520;2023-12-22T11:29:11;97353.84;;;2.58;69.14
61205;BME280;47068;55.780;37.520;2023-12-22T11:31:36;97354.69;;;2.51;69.31
61205;BME280;47068;55.780;37.520;2023-12-22T11:34:02;97351.59;;;2.55;69.80
61205;BME280;47068;55.780;37.520;2023-12-22T11:36:29;97341.97;;;2.40;69.64
61205;BME280;47068;55.780;37.520;2023-12-22T11:38:56;97330.63;;;2.47;69.07
61205;BME280;47068;55.780;37.520;2023-12-22T11:41:23;97336.81;;;2.54;69.37
61205;BME280;47068;55.780;37.520;2023-12-22T11:43:50;97341.59;;;2.43;69.32
61205;BME280;47068;55.780;37.520;2023-12-22T11:46:16;97342.16;;;2.22;69.26
61205;BME280;47068;55.780;37.520;2023-12-22T11:48:49;97348.75;;;2.26;69.63
61205;BME280;47068;55.780;37.520;2023-12-22T11:51:15;97325.63;;;2.21;70.15
61205;BME280;47068;55.780;37.520;2023-12-22T11:53:40;97332.31;;;2.32;69.51
61205;BME280;47068;55.780;37.520;2023-12-22T11:56:06;97332.31;;;2.32;69.55
61205;BME280;47068;55.780;37.520;2023-12-22T11:58:36;97314.28;;;2.29;69.93
61205;BME280;47068;55.780;37.520;2023-12-22T12:01:02;97335.59;;;2.34;69.43
61205;BME280;47068;55.780;37.520;2023-12-22T12:03:30;97327.75;;;2.26;69.28
61205;BME280;47068;55.780;37.520;2023-12-22T12:08:44;97338.28;;;2.02;69.52
61205;BME280;47068;55.780;37.520;2023-12-22T12:11:09;97338.81;;;1.97;70.07
61205;BME280;47068;55.780;37.520;2023-12-22T12:13:35;97326.53;;;1.97;70.68
61205;BME280;47068;55.780;37.520;2023-12-22T12:16:03;97326.84;;;1.94;70.16
61205;BME280;47068;55.780;37.520;2023-12-22T12:18:31;97334.91;;;1.85;71.54
61205;BME280;47068;55.780;37.520;2023-12-22T12:20:58;97335.22;;;1.82;71.24
61205;BME280;47068;55.780;37.520;2023-12-22T12:23:24;97322.78;;;1.84;71.93
61205;BME280;47068;55.780;37.520;2023-12-22T12:25:49;97341.97;;;1.76;71.68
61205;BME280;47068;55.780;37.520;2023-12-22T12:28:15;97333.94;;;1.78;73.21
61205;BME280;47068;55.780;37.520;2023-12-22T12:30:43;97336.22;;;1.81;71.84
61205;BME280;47068;55.780;37.520;2023-12-22T12:33:09;97339.84;;;1.64;71.65
61205;BME280;47068;55.780;37.520;2023-12-22T12:35:35;97322.84;;;1.35;72.92
61205;BME280;47068;55.780;37.520;2023-12-22T12:38:00;97317.75;;;1.17;73.56
61205;BME280;47068;55.780;37.520;2023-12-22T12:40:26;97310.53;;;1.11;73.76
61205;BME280;47068;55.780;37.520;2023-12-22T12:42:54;97307.94;;;1.03;74.38
61205;BME280;47068;55.780;37.520;2023-12-22T12:45:22;97305.13;;;1.05;74.52
61205;BME280;47068;55.780;37.520;2023-12-22T12:48:02;97299.59;;;1.08;74.25
61205;BME280;47068;55.780;37.520;2023-12-22T12:50:28;97309.38;;;0.98;74.54
61205;BME280;47068;55.780;37.520;2023-12-22T12:52:54;97308.75;;;0.96;74.76
61205;BME280;47068;55.780;37.520;2023-12-22T12:55:20;97295.16;;;1.00;75.34
61205;BME280;47068;55.780;37.520;2023-12-22T12:57:48;97294.84;;;1.03;75.02